sensor_id;sensor_type;location;lat;lon;timestamp;P1;durP1;ratioP1;P2;durP2;ratioP2
57730;SDS011;43570;47.476;19.040;2023-03-25T00:03:28;3.37;;;2.33;;
57730;SDS011;43570;47.476;19.040;2023-03-25T00:05:55;2.90;;;1.80;;
57730;SDS011;43570;47.476;19.040;2023-03-25T00:08:24;2.83;;;1.95;;
57730;SDS011;43570;47.476;19.040;2023-03-25T00:10:53;3.42;;;1.77;;
57730;SDS011;43570;47.476;19.040;2023-03-25T00:13:19;3.28;;;2.10;;
57730;SDS011;43570;47.476;19.040;2023-03-25T00:15:45;4.62;;;1.67;;
57730;SDS011;43570;47.476;19.040;2023-03-25T00:18:17;6.82;;;4.00;;
57730;SDS011;43570;47.476;19.040;2023-03-25T00:20:44;4.93;;;2.30;;
57730;SDS011;43570;47.476;19.040;2023-03-25T00:23:14;4.15;;;1.73;;
57730;SDS011;43570;47.476;19.040;2023-03-25T00:25:40;2.90;;;1.40;;
57730;SDS011;43570;47.476;19.040;2023-03-25T00:28:05;2.40;;;1.60;;
57730;SDS011;43570;47.476;19.040;2023-03-25T00:30:32;5.50;;;1.90;;
57730;SDS011;43570;47.476;19.040;2023-03-25T00:32:58;1.62;;;1.50;;
57730;SDS011;43570;47.476;19.040;2023-03-25T00:35:25;3.03;;;1.80;;
57730;SDS011;43570;47.476;19.040;2023-03-25T00:37:52;2.87;;;1.67;;
57730;SDS011;43570;47.476;19.040;2023-03-25T00:40:24;2.22;;;1.35;;
57730;SDS011;43570;47.476;19.040;2023-03-25T00:42:52;2.20;;;1.37;;
57730;SDS011;43570;47.476;19.040;2023-03-25T00:45:18;3.45;;;1.55;;
57730;SDS011;43570;47.476;19.040;2023-03-25T00:47:43;2.55;;;1.60;;
57730;SDS011;43570;47.476;19.040;2023-03-25T00:50:09;2.37;;;1.70;;
57730;SDS011;43570;47.476;19.040;2023-03-25T00:52:35;1.50;;;1.30;;
57730;SDS011;43570;47.476;19.040;2023-03-25T00:55:00;2.17;;;1.45;;
57730;SDS011;43570;47.476;19.040;2023-03-25T00:57:26;1.42;;;1.30;;
57730;SDS011;43570;47.476;19.040;2023-03-25T00:59:52;2.53;;;1.58;;
57730;SDS011;43570;47.476;19.040;2023-03-25T01:02:17;7.97;;;1.85;;
57730;SDS011;43570;47.476;19.040;2023-03-25T01:04:45;2.80;;;1.40;;
57730;SDS011;43570;47.476;19.040;2023-03-25T01:07:14;2.45;;;1.42;;
57730;SDS011;43570;47.476;19.040;2023-03-25T01:09:40;3.40;;;1.65;;
57730;SDS011;43570;47.476;19.040;2023-03-25T01:12:06;5.25;;;1.80;;
57730;SDS011;43570;47.476;19.040;2023-03-25T01:14:32;6.70;;;2.00;;
57730;SDS011;43570;47.476;19.040;2023-03-25T01:16:57;3.90;;;1.98;;
57730;SDS011;43570;47.476;19.040;2023-03-25T01:19:23;4.87;;;1.90;;
57730;SDS011;43570;47.476;19.040;2023-03-25T01:21:49;2.42;;;1.67;;
57730;SDS011;43570;47.476;19.040;2023-03-25T01:24:15;5.72;;;2.12;;
57730;SDS011;43570;47.476;19.040;2023-03-25T01:26:41;4.43;;;2.00;;
57730;SDS011;43570;47.476;19.040;2023-03-25T01:29:14;3.17;;;2.00;;
57730;SDS011;43570;47.476;19.040;2023-03-25T01:31:41;4.10;;;2.15;;
57730;SDS011;43570;47.476;19.040;2023-03-25T01:34:07;3.45;;;2.37;;
57730;SDS011;43570;47.476;19.040;2023-03-25T01:36:32;4.72;;;2.50;;
57730;SDS011;43570;47.476;19.040;2023-03-25T01:39:00;3.75;;;2.50;;
57730;SDS011;43570;47.476;19.040;2023-03-25T01:41:27;3.15;;;2.22;;
57730;SDS011;43570;47.476;19.040;2023-03-25T01:44:03;4.35;;;3.00;;
57730;SDS011;43570;47.476;19.040;2023-03-25T01:46:29;6.45;;;3.53;;
57730;SDS011;43570;47.476;19.040;2023-03-25T01:48:54;5.55;;;3.05;;
57730;SDS011;43570;47.476;19.040;2023-03-25T01:51:21;6.32;;;3.17;;
57730;SDS011;43570;47.476;19.040;2023-03-25T01:53:49;5.55;;;3.20;;
57730;SDS011;43570;47.476;19.040;2023-03-25T01:56:17;4.90;;;3.05;;
57730;SDS011;43570;47.476;19.040;2023-03-25T01:58:44;6.57;;;3.50;;
57730;SDS011;43570;47.476;19.040;2023-03-25T02:01:11;7.07;;;3.50;;
57730;SDS011;43570;47.476;19.040;2023-03-25T02:03:38;7.05;;;3.58;;
57730;SDS011;43570;47.476;19.040;2023-03-25T02:06:14;5.87;;;3.75;;
57730;SDS011;43570;47.476;19.040;2023-03-25T02:08:44;5.87;;;3.62;;
57730;SDS011;43570;47.476;19.040;2023-03-25T02:11:09;5.95;;;3.53;;
57730;SDS011;43570;47.476;19.040;2023-03-25T02:13:35;4.65;;;3.15;;
57730;SDS011;43570;47.476;19.040;2023-03-25T02:43:45;5.12;;;3.87;;
57730;SDS011;43570;47.476;19.040;2023-03-25T02:46:13;5.68;;;4.32;;
57730;SDS011;43570;47.476;19.040;2023-03-25T02:48:47;5.53;;;4.00;;
57730;SDS011;43570;47.476;19.040;2023-03-25T02:51:20;4.72;;;3.62;;
57730;SDS011;43570;47.476;19.040;2023-03-25T02:53:52;4.30;;;3.40;;
57730;SDS011;43570;47.476;19.040;2023-03-25T02:56:19;4.50;;;3.10;;
57730;SDS011;43570;47.476;19.040;2023-03-25T02:58:47;4.22;;;3.03;;
57730;SDS011;43570;47.476;19.040;2023-03-25T03:01:13;4.05;;;2.65;;
57730;SDS011;43570;47.476;19.040;2023-03-25T03:03:39;4.62;;;2.90;;
57730;SDS011;43570;47.476;19.040;2023-03-25T03:06:05;4.45;;;2.60;;
57730;SDS011;43570;47.476;19.040;2023-03-25T03:21:58;3.28;;;2.17;;
57730;SDS011;43570;47.476;19.040;2023-03-25T03:24:33;3.10;;;2.35;;
57730;SDS011;43570;47.476;19.040;2023-03-25T03:27:06;3.42;;;1.83;;
57730;SDS011;43570;47.476;19.040;2023-03-25T03:29:37;5.22;;;2.00;;
57730;SDS011;43570;47.476;19.040;2023-03-25T03:34:56;3.65;;;2.30;;
57730;SDS011;43570;47.476;19.040;2023-03-25T03:37:30;3.87;;;2.28;;
57730;SDS011;43570;47.476;19.040;2023-03-25T03:39:58;4.05;;;1.98;;
57730;SDS011;43570;47.476;19.040;2023-03-25T03:42:35;3.87;;;2.20;;
57730;SDS011;43570;47.476;19.040;2023-03-25T03:45:04;4.10;;;2.25;;
57730;SDS011;43570;47.476;19.040;2023-03-25T03:47:35;3.75;;;2.08;;
57730;SDS011;43570;47.476;19.040;2023-03-25T03:50:06;5.25;;;2.58;;
57730;SDS011;43570;47.476;19.040;2023-03-25T03:52:36;3.87;;;2.37;;
57730;SDS011;43570;47.476;19.040;2023-03-25T03:55:11;3.58;;;2.45;;
57730;SDS011;43570;47.476;19.040;2023-03-25T04:00:23;3.83;;;2.05;;
57730;SDS011;43570;47.476;19.040;2023-03-25T04:02:55;4.87;;;2.50;;
57730;SDS011;43570;47.476;19.040;2023-03-25T04:05:25;3.78;;;2.37;;
57730;SDS011;43570;47.476;19.040;2023-03-25T04:07:59;4.07;;;2.42;;
57730;SDS011;43570;47.476;19.040;2023-03-25T04:13:16;5.05;;;2.40;;
57730;SDS011;43570;47.476;19.040;2023-03-25T04:15:46;5.25;;;2.70;;
57730;SDS011;43570;47.476;19.040;2023-03-25T04:18:11;5.15;;;2.95;;
57730;SDS011;43570;47.476;19.040;2023-03-25T04:20:37;4.35;;;2.72;;
57730;SDS011;43570;47.476;19.040;2023-03-25T04:23:09;5.47;;;2.78;;
57730;SDS011;43570;47.476;19.040;2023-03-25T04:25:40;4.82;;;2.83;;
57730;SDS011;43570;47.476;19.040;2023-03-25T04:28:06;4.30;;;2.62;;
57730;SDS011;43570;47.476;19.040;2023-03-25T04:30:31;5.45;;;2.75;;
57730;SDS011;43570;47.476;19.040;2023-03-25T04:32:57;2.83;;;2.30;;
57730;SDS011;43570;47.476;19.040;2023-03-25T04:35:24;4.68;;;2.80;;
57730;SDS011;43570;47.476;19.040;2023-03-25T04:37:50;4.28;;;3.17;;
57730;SDS011;43570;47.476;19.040;2023-03-25T04:40:18;5.45;;;3.10;;
57730;SDS011;43570;47.476;19.040;2023-03-25T04:42:45;4.07;;;2.92;;
57730;SDS011;43570;47.476;19.040;2023-03-25T04:45:11;5.22;;;3.20;;
57730;SDS011;43570;47.476;19.040;2023-03-25T04:47:40;4.75;;;3.05;;
57730;SDS011;43570;47.476;19.040;2023-03-25T04:52:46;5.15;;;3.30;;
57730;SDS011;43570;47.476;19.040;2023-03-25T04:55:12;6.45;;;3.03;;
57730;SDS011;43570;47.476;19.040;2023-03-25T04:57:41;4.45;;;3.22;;
57730;SDS011;43570;47.476;19.040;2023-03-25T05:00:08;4.57;;;3.05;;
57730;SDS011;43570;47.476;19.040;2023-03-25T05:02:35;3.97;;;3.05;;
57730;SDS011;43570;47.476;19.040;2023-03-25T05:05:02;5.05;;;3.10;;
57730;SDS011;43570;47.476;19.040;2023-03-25T05:07:28;4.90;;;3.20;;
57730;SDS011;43570;47.476;19.040;2023-03-25T05:09:54;4.68;;;2.97;;
57730;SDS011;43570;47.476;19.040;2023-03-25T05:12:21;4.60;;;3.00;;
57730;SDS011;43570;47.476;19.040;2023-03-25T05:14:46;3.87;;;2.83;;
57730;SDS011;43570;47.476;19.040;2023-03-25T05:17:12;4.40;;;3.00;;
57730;SDS011;43570;47.476;19.040;2023-03-25T05:19:37;3.20;;;2.60;;
57730;SDS011;43570;47.476;19.040;2023-03-25T05:22:03;4.25;;;3.10;;
57730;SDS011;43570;47.476;19.040;2023-03-25T05:24:28;3.28;;;2.80;;
57730;SDS011;43570;47.476;19.040;2023-03-25T05:26:54;3.75;;;2.80;;
57730;SDS011;43570;47.476;19.040;2023-03-25T05:29:19;3.53;;;2.67;;
57730;SDS011;43570;47.476;19.040;2023-03-25T05:31:45;4.00;;;2.72;;
57730;SDS011;43570;47.476;19.040;2023-03-25T05:34:12;3.70;;;2.40;;
57730;SDS011;43570;47.476;19.040;2023-03-25T05:36:38;4.25;;;2.40;;
57730;SDS011;43570;47.476;19.040;2023-03-25T05:39:04;3.60;;;2.30;;
57730;SDS011;43570;47.476;19.040;2023-03-25T05:41:29;2.70;;;2.05;;
57730;SDS011;43570;47.476;19.040;2023-03-25T05:44:02;3.95;;;2.20;;
57730;SDS011;43570;47.476;19.040;2023-03-25T05:46:29;3.62;;;2.00;;
57730;SDS011;43570;47.476;19.040;2023-03-25T05:48:55;2.65;;;2.10;;
57730;SDS011;43570;47.476;19.040;2023-03-25T05:51:21;5.25;;;2.22;;
57730;SDS011;43570;47.476;19.040;2023-03-25T05:53:48;4.20;;;2.40;;
57730;SDS011;43570;47.476;19.040;2023-03-25T05:56:14;2.40;;;1.98;;
57730;SDS011;43570;47.476;19.040;2023-03-25T05:58:44;4.93;;;2.28;;
57730;SDS011;43570;47.476;19.040;2023-03-25T06:01:10;3.05;;;1.95;;
57730;SDS011;43570;47.476;19.040;2023-03-25T06:03:38;2.42;;;1.73;;
57730;SDS011;43570;47.476;19.040;2023-03-25T06:06:03;3.05;;;1.65;;
57730;SDS011;43570;47.476;19.040;2023-03-25T06:08:29;2.60;;;1.80;;
57730;SDS011;43570;47.476;19.040;2023-03-25T06:10:55;2.75;;;1.62;;
57730;SDS011;43570;47.476;19.040;2023-03-25T06:13:22;2.22;;;1.70;;
57730;SDS011;43570;47.476;19.040;2023-03-25T06:15:51;2.90;;;1.60;;
57730;SDS011;43570;47.476;19.040;2023-03-25T06:18:24;3.22;;;2.00;;
57730;SDS011;43570;47.476;19.040;2023-03-25T06:20:52;2.08;;;1.58;;
57730;SDS011;43570;47.476;19.040;2023-03-25T06:23:21;2.37;;;1.45;;
57730;SDS011;43570;47.476;19.040;2023-03-25T06:25:50;3.08;;;1.60;;
57730;SDS011;43570;47.476;19.040;2023-03-25T06:28:16;2.37;;;1.30;;
57730;SDS011;43570;47.476;19.040;2023-03-25T06:30:45;4.22;;;1.83;;
57730;SDS011;43570;47.476;19.040;2023-03-25T06:33:12;2.05;;;1.52;;
57730;SDS011;43570;47.476;19.040;2023-03-25T06:35:38;1.50;;;1.23;;
57730;SDS011;43570;47.476;19.040;2023-03-25T06:38:06;2.20;;;1.50;;
57730;SDS011;43570;47.476;19.040;2023-03-25T06:40:33;2.17;;;1.62;;
57730;SDS011;43570;47.476;19.040;2023-03-25T06:42:59;2.92;;;1.70;;
57730;SDS011;43570;47.476;19.040;2023-03-25T06:45:25;2.15;;;1.40;;
57730;SDS011;43570;47.476;19.040;2023-03-25T06:47:50;1.75;;;1.25;;
57730;SDS011;43570;47.476;19.040;2023-03-25T06:50:15;3.42;;;1.83;;
57730;SDS011;43570;47.476;19.040;2023-03-25T06:52:41;3.00;;;1.60;;
57730;SDS011;43570;47.476;19.040;2023-03-25T06:55:06;1.90;;;1.48;;
57730;SDS011;43570;47.476;19.040;2023-03-25T06:57:32;2.55;;;1.70;;
57730;SDS011;43570;47.476;19.040;2023-03-25T06:59:57;2.12;;;1.60;;
57730;SDS011;43570;47.476;19.040;2023-03-25T07:02:23;1.50;;;1.40;;
57730;SDS011;43570;47.476;19.040;2023-03-25T07:04:48;1.60;;;1.50;;
57730;SDS011;43570;47.476;19.040;2023-03-25T07:07:14;3.42;;;1.50;;
57730;SDS011;43570;47.476;19.040;2023-03-25T07:09:39;2.92;;;1.70;;
57730;SDS011;43570;47.476;19.040;2023-03-25T07:12:05;2.30;;;1.55;;
57730;SDS011;43570;47.476;19.040;2023-03-25T07:14:30;3.08;;;1.80;;
57730;SDS011;43570;47.476;19.040;2023-03-25T07:16:56;3.97;;;1.98;;
57730;SDS011;43570;47.476;19.040;2023-03-25T07:19:21;3.10;;;1.83;;
57730;SDS011;43570;47.476;19.040;2023-03-25T07:21:46;2.58;;;1.80;;
57730;SDS011;43570;47.476;19.040;2023-03-25T07:24:12;2.33;;;1.75;;
57730;SDS011;43570;47.476;19.040;2023-03-25T07:26:37;2.60;;;1.85;;
57730;SDS011;43570;47.476;19.040;2023-03-25T07:29:03;2.97;;;1.90;;
57730;SDS011;43570;47.476;19.040;2023-03-25T07:31:28;4.87;;;2.00;;
57730;SDS011;43570;47.476;19.040;2023-03-25T07:33:54;3.20;;;1.87;;
57730;SDS011;43570;47.476;19.040;2023-03-25T07:36:20;3.12;;;2.22;;
57730;SDS011;43570;47.476;19.040;2023-03-25T07:38:47;3.35;;;1.80;;
57730;SDS011;43570;47.476;19.040;2023-03-25T07:41:13;4.10;;;2.00;;
57730;SDS011;43570;47.476;19.040;2023-03-25T07:43:38;3.67;;;1.98;;
57730;SDS011;43570;47.476;19.040;2023-03-25T07:46:04;3.12;;;2.12;;
57730;SDS011;43570;47.476;19.040;2023-03-25T07:48:30;2.53;;;2.10;;
57730;SDS011;43570;47.476;19.040;2023-03-25T07:50:55;3.47;;;1.90;;
57730;SDS011;43570;47.476;19.040;2023-03-25T07:53:21;3.08;;;1.83;;
57730;SDS011;43570;47.476;19.040;2023-03-25T07:55:46;2.90;;;1.75;;
57730;SDS011;43570;47.476;19.040;2023-03-25T07:58:14;3.05;;;1.75;;
57730;SDS011;43570;47.476;19.040;2023-03-25T08:00:40;3.58;;;1.77;;
57730;SDS011;43570;47.476;19.040;2023-03-25T08:03:06;4.75;;;1.95;;
57730;SDS011;43570;47.476;19.040;2023-03-25T08:05:31;3.78;;;1.75;;
57730;SDS011;43570;47.476;19.040;2023-03-25T08:07:56;2.30;;;1.50;;
57730;SDS011;43570;47.476;19.040;2023-03-25T08:10:25;3.87;;;2.00;;
57730;SDS011;43570;47.476;19.040;2023-03-25T08:12:51;4.90;;;1.98;;
57730;SDS011;43570;47.476;19.040;2023-03-25T08:15:20;2.50;;;1.70;;
57730;SDS011;43570;47.476;19.040;2023-03-25T08:17:48;3.28;;;1.50;;
57730;SDS011;43570;47.476;19.040;2023-03-25T08:20:15;2.62;;;1.52;;
57730;SDS011;43570;47.476;19.040;2023-03-25T08:22:42;5.90;;;1.70;;
57730;SDS011;43570;47.476;19.040;2023-03-25T08:25:08;2.67;;;1.50;;
57730;SDS011;43570;47.476;19.040;2023-03-25T08:27:34;6.75;;;2.35;;
57730;SDS011;43570;47.476;19.040;2023-03-25T08:29:59;5.62;;;1.73;;
57730;SDS011;43570;47.476;19.040;2023-03-25T08:32:25;3.85;;;1.60;;
57730;SDS011;43570;47.476;19.040;2023-03-25T08:34:52;4.50;;;1.58;;
57730;SDS011;43570;47.476;19.040;2023-03-25T08:37:18;2.12;;;1.50;;
57730;SDS011;43570;47.476;19.040;2023-03-25T08:39:44;2.60;;;1.60;;
57730;SDS011;43570;47.476;19.040;2023-03-25T08:42:12;5.47;;;2.00;;
57730;SDS011;43570;47.476;19.040;2023-03-25T08:44:37;3.17;;;2.00;;
57730;SDS011;43570;47.476;19.040;2023-03-25T08:47:03;3.17;;;1.67;;
57730;SDS011;43570;47.476;19.040;2023-03-25T08:49:29;3.95;;;1.77;;
57730;SDS011;43570;47.476;19.040;2023-03-25T08:51:55;3.03;;;1.67;;
57730;SDS011;43570;47.476;19.040;2023-03-25T08:54:25;3.70;;;1.73;;
57730;SDS011;43570;47.476;19.040;2023-03-25T08:56:51;2.87;;;1.75;;
57730;SDS011;43570;47.476;19.040;2023-03-25T08:59:16;2.72;;;1.80;;
57730;SDS011;43570;47.476;19.040;2023-03-25T09:01:42;4.43;;;2.00;;
57730;SDS011;43570;47.476;19.040;2023-03-25T09:04:08;3.25;;;1.85;;
57730;SDS011;43570;47.476;19.040;2023-03-25T09:06:34;3.87;;;1.85;;
57730;SDS011;43570;47.476;19.040;2023-03-25T09:09:00;3.65;;;1.95;;
57730;SDS011;43570;47.476;19.040;2023-03-25T09:11:26;5.40;;;1.87;;
57730;SDS011;43570;47.476;19.040;2023-03-25T09:13:51;2.75;;;1.90;;
57730;SDS011;43570;47.476;19.040;2023-03-25T09:16:17;4.53;;;2.00;;
57730;SDS011;43570;47.476;19.040;2023-03-25T09:18:42;3.37;;;2.00;;
57730;SDS011;43570;47.476;19.040;2023-03-25T09:21:07;4.40;;;1.98;;
57730;SDS011;43570;47.476;19.040;2023-03-25T09:23:33;4.68;;;1.80;;
57730;SDS011;43570;47.476;19.040;2023-03-25T09:25:59;3.37;;;1.90;;
57730;SDS011;43570;47.476;19.040;2023-03-25T09:28:26;5.15;;;2.03;;
57730;SDS011;43570;47.476;19.040;2023-03-25T09:30:51;2.72;;;1.60;;
57730;SDS011;43570;47.476;19.040;2023-03-25T09:33:18;4.25;;;2.03;;
57730;SDS011;43570;47.476;19.040;2023-03-25T09:35:43;4.30;;;1.80;;
57730;SDS011;43570;47.476;19.040;2023-03-25T09:38:09;7.18;;;1.92;;
57730;SDS011;43570;47.476;19.040;2023-03-25T09:40:35;4.65;;;1.80;;
57730;SDS011;43570;47.476;19.040;2023-03-25T09:43:06;3.85;;;1.73;;
57730;SDS011;43570;47.476;19.040;2023-03-25T09:45:36;2.87;;;1.40;;
57730;SDS011;43570;47.476;19.040;2023-03-25T09:50:53;5.43;;;2.00;;
57730;SDS011;43570;47.476;19.040;2023-03-25T09:55:52;4.45;;;2.05;;
57730;SDS011;43570;47.476;19.040;2023-03-25T10:00:47;4.35;;;2.20;;
57730;SDS011;43570;47.476;19.040;2023-03-25T10:03:19;2.97;;;1.62;;
57730;SDS011;43570;47.476;19.040;2023-03-25T10:06:36;2.97;;;1.95;;
57730;SDS011;43570;47.476;19.040;2023-03-25T10:08:51;5.93;;;3.12;;
57730;SDS011;43570;47.476;19.040;2023-03-25T10:14:11;8.10;;;1.85;;
57730;SDS011;43570;47.476;19.040;2023-03-25T10:22:33;5.20;;;2.05;;
57730;SDS011;43570;47.476;19.040;2023-03-25T10:25:03;5.25;;;2.33;;
57730;SDS011;43570;47.476;19.040;2023-03-25T10:27:32;3.85;;;2.50;;
57730;SDS011;43570;47.476;19.040;2023-03-25T10:30:14;6.28;;;2.70;;
57730;SDS011;43570;47.476;19.040;2023-03-25T10:32:43;3.63;;;2.33;;
57730;SDS011;43570;47.476;19.040;2023-03-25T10:35:19;4.50;;;2.45;;
57730;SDS011;43570;47.476;19.040;2023-03-25T10:37:46;5.22;;;2.50;;
57730;SDS011;43570;47.476;19.040;2023-03-25T10:40:15;6.85;;;3.70;;
57730;SDS011;43570;47.476;19.040;2023-03-25T10:45:24;4.40;;;2.83;;
57730;SDS011;43570;47.476;19.040;2023-03-25T10:47:51;5.37;;;2.30;;
57730;SDS011;43570;47.476;19.040;2023-03-25T10:50:18;4.90;;;2.37;;
57730;SDS011;43570;47.476;19.040;2023-03-25T10:52:44;5.03;;;2.50;;
57730;SDS011;43570;47.476;19.040;2023-03-25T10:55:20;4.60;;;2.60;;
57730;SDS011;43570;47.476;19.040;2023-03-25T10:57:48;6.20;;;2.90;;
57730;SDS011;43570;47.476;19.040;2023-03-25T11:00:15;4.10;;;2.33;;
57730;SDS011;43570;47.476;19.040;2023-03-25T11:02:44;4.72;;;2.30;;
57730;SDS011;43570;47.476;19.040;2023-03-25T11:05:11;3.87;;;1.98;;
57730;SDS011;43570;47.476;19.040;2023-03-25T11:07:47;2.62;;;1.75;;
57730;SDS011;43570;47.476;19.040;2023-03-25T11:12:42;5.93;;;2.50;;
57730;SDS011;43570;47.476;19.040;2023-03-25T11:15:25;4.90;;;2.08;;
57730;SDS011;43570;47.476;19.040;2023-03-25T11:17:56;4.45;;;2.47;;
57730;SDS011;43570;47.476;19.040;2023-03-25T11:20:25;5.72;;;2.20;;
57730;SDS011;43570;47.476;19.040;2023-03-25T11:22:53;4.82;;;2.67;;
57730;SDS011;43570;47.476;19.040;2023-03-25T11:25:23;4.35;;;2.15;;
57730;SDS011;43570;47.476;19.040;2023-03-25T11:27:51;3.22;;;2.00;;
57730;SDS011;43570;47.476;19.040;2023-03-25T11:30:22;4.90;;;2.05;;
57730;SDS011;43570;47.476;19.040;2023-03-25T11:33:04;6.72;;;2.90;;
57730;SDS011;43570;47.476;19.040;2023-03-25T11:35:35;4.30;;;1.92;;
57730;SDS011;43570;47.476;19.040;2023-03-25T11:38:07;4.15;;;1.80;;
57730;SDS011;43570;47.476;19.040;2023-03-25T11:40:39;3.83;;;1.80;;
57730;SDS011;43570;47.476;19.040;2023-03-25T11:43:14;5.03;;;1.90;;
57730;SDS011;43570;47.476;19.040;2023-03-25T11:45:45;4.40;;;1.92;;
57730;SDS011;43570;47.476;19.040;2023-03-25T11:48:17;3.47;;;1.80;;
57730;SDS011;43570;47.476;19.040;2023-03-25T11:50:48;3.78;;;2.25;;
57730;SDS011;43570;47.476;19.040;2023-03-25T11:53:18;6.18;;;1.52;;
57730;SDS011;43570;47.476;19.040;2023-03-25T11:55:45;4.15;;;1.60;;
57730;SDS011;43570;47.476;19.040;2023-03-25T11:58:24;3.80;;;1.70;;
57730;SDS011;43570;47.476;19.040;2023-03-25T12:00:59;3.70;;;1.80;;
57730;SDS011;43570;47.476;19.040;2023-03-25T12:03:26;6.82;;;2.28;;
57730;SDS011;43570;47.476;19.040;2023-03-25T12:05:56;3.03;;;1.65;;
57730;SDS011;43570;47.476;19.040;2023-03-25T12:08:29;6.70;;;2.03;;
57730;SDS011;43570;47.476;19.040;2023-03-25T12:14:16;2.70;;;1.37;;
57730;SDS011;43570;47.476;19.040;2023-03-25T12:25:33;2.22;;;1.40;;
57730;SDS011;43570;47.476;19.040;2023-03-25T12:41:48;2.50;;;1.50;;
57730;SDS011;43570;47.476;19.040;2023-03-25T12:47:21;4.55;;;1.60;;
57730;SDS011;43570;47.476;19.040;2023-03-25T12:52:29;4.20;;;1.62;;
57730;SDS011;43570;47.476;19.040;2023-03-25T13:14:20;2.97;;;1.45;;
57730;SDS011;43570;47.476;19.040;2023-03-25T13:16:49;4.07;;;1.50;;
57730;SDS011;43570;47.476;19.040;2023-03-25T13:19:21;4.15;;;1.50;;
57730;SDS011;43570;47.476;19.040;2023-03-25T13:21:49;2.72;;;1.37;;
57730;SDS011;43570;47.476;19.040;2023-03-25T13:24:38;2.83;;;1.42;;
57730;SDS011;43570;47.476;19.040;2023-03-25T13:27:08;4.95;;;1.75;;
57730;SDS011;43570;47.476;19.040;2023-03-25T13:29:39;2.97;;;1.30;;
57730;SDS011;43570;47.476;19.040;2023-03-25T13:32:19;4.95;;;1.73;;
57730;SDS011;43570;47.476;19.040;2023-03-25T13:34:59;3.92;;;1.48;;
57730;SDS011;43570;47.476;19.040;2023-03-25T13:37:33;2.30;;;1.40;;
57730;SDS011;43570;47.476;19.040;2023-03-25T13:45:18;3.67;;;1.50;;
57730;SDS011;43570;47.476;19.040;2023-03-25T13:48:08;2.80;;;1.40;;
57730;SDS011;43570;47.476;19.040;2023-03-25T13:50:38;4.25;;;1.52;;
57730;SDS011;43570;47.476;19.040;2023-03-25T13:55:51;3.10;;;1.45;;
57730;SDS011;43570;47.476;19.040;2023-03-25T14:12:49;3.70;;;1.67;;
57730;SDS011;43570;47.476;19.040;2023-03-25T14:15:36;2.25;;;1.30;;
57730;SDS011;43570;47.476;19.040;2023-03-25T14:18:03;4.40;;;1.58;;
57730;SDS011;43570;47.476;19.040;2023-03-25T14:20:33;4.70;;;1.40;;
57730;SDS011;43570;47.476;19.040;2023-03-25T14:23:02;4.75;;;1.70;;
57730;SDS011;43570;47.476;19.040;2023-03-25T14:25:42;5.30;;;1.60;;
57730;SDS011;43570;47.476;19.040;2023-03-25T14:28:11;3.85;;;1.12;;
57730;SDS011;43570;47.476;19.040;2023-03-25T14:30:40;3.90;;;1.42;;
57730;SDS011;43570;47.476;19.040;2023-03-25T14:33:07;3.47;;;1.55;;
57730;SDS011;43570;47.476;19.040;2023-03-25T14:43:16;4.47;;;2.17;;
57730;SDS011;43570;47.476;19.040;2023-03-25T14:50:52;8.27;;;2.05;;
57730;SDS011;43570;47.476;19.040;2023-03-25T14:53:22;5.03;;;1.40;;
57730;SDS011;43570;47.476;19.040;2023-03-25T14:55:50;4.80;;;1.50;;
57730;SDS011;43570;47.476;19.040;2023-03-25T14:58:17;2.90;;;1.30;;
57730;SDS011;43570;47.476;19.040;2023-03-25T15:01:04;4.07;;;1.58;;
57730;SDS011;43570;47.476;19.040;2023-03-25T15:03:34;2.50;;;1.25;;
57730;SDS011;43570;47.476;19.040;2023-03-25T15:06:02;2.87;;;1.05;;
57730;SDS011;43570;47.476;19.040;2023-03-25T15:08:33;4.75;;;1.27;;
57730;SDS011;43570;47.476;19.040;2023-03-25T15:19:04;3.05;;;1.50;;
57730;SDS011;43570;47.476;19.040;2023-03-25T15:21:33;4.03;;;1.17;;
57730;SDS011;43570;47.476;19.040;2023-03-25T15:24:20;3.55;;;1.33;;
57730;SDS011;43570;47.476;19.040;2023-03-25T15:26:59;4.03;;;1.30;;
57730;SDS011;43570;47.476;19.040;2023-03-25T15:41:35;3.03;;;1.25;;
57730;SDS011;43570;47.476;19.040;2023-03-25T15:50:25;3.80;;;1.60;;
57730;SDS011;43570;47.476;19.040;2023-03-25T15:56:07;2.45;;;1.52;;
57730;SDS011;43570;47.476;19.040;2023-03-25T15:58:25;2.85;;;1.30;;
57730;SDS011;43570;47.476;19.040;2023-03-25T16:00:55;5.75;;;1.50;;
57730;SDS011;43570;47.476;19.040;2023-03-25T16:03:28;4.10;;;1.42;;
57730;SDS011;43570;47.476;19.040;2023-03-25T16:05:55;4.32;;;1.62;;
57730;SDS011;43570;47.476;19.040;2023-03-25T16:08:29;2.60;;;1.20;;
57730;SDS011;43570;47.476;19.040;2023-03-25T16:10:56;3.92;;;1.50;;
57730;SDS011;43570;47.476;19.040;2023-03-25T16:13:38;2.85;;;1.30;;
57730;SDS011;43570;47.476;19.040;2023-03-25T16:16:03;3.10;;;1.10;;
57730;SDS011;43570;47.476;19.040;2023-03-25T16:18:30;2.20;;;1.17;;
57730;SDS011;43570;47.476;19.040;2023-03-25T16:20:58;6.47;;;3.00;;
57730;SDS011;43570;47.476;19.040;2023-03-25T16:23:25;5.10;;;1.27;;
57730;SDS011;43570;47.476;19.040;2023-03-25T16:25:51;2.08;;;1.02;;
57730;SDS011;43570;47.476;19.040;2023-03-25T16:28:18;4.50;;;1.33;;
57730;SDS011;43570;47.476;19.040;2023-03-25T16:30:48;2.58;;;1.15;;
57730;SDS011;43570;47.476;19.040;2023-03-25T16:33:17;3.70;;;1.17;;
57730;SDS011;43570;47.476;19.040;2023-03-25T16:35:47;3.27;;;1.00;;
57730;SDS011;43570;47.476;19.040;2023-03-25T16:38:15;2.70;;;1.07;;
57730;SDS011;43570;47.476;19.040;2023-03-25T16:40:43;3.62;;;1.23;;
57730;SDS011;43570;47.476;19.040;2023-03-25T16:45:36;5.40;;;1.40;;
57730;SDS011;43570;47.476;19.040;2023-03-25T16:48:04;2.87;;;1.40;;
57730;SDS011;43570;47.476;19.040;2023-03-25T16:50:31;3.40;;;1.37;;
57730;SDS011;43570;47.476;19.040;2023-03-25T16:52:58;3.00;;;1.20;;
57730;SDS011;43570;47.476;19.040;2023-03-25T16:58:28;3.22;;;1.60;;
57730;SDS011;43570;47.476;19.040;2023-03-25T17:00:54;5.90;;;1.77;;
57730;SDS011;43570;47.476;19.040;2023-03-25T17:03:37;3.15;;;1.55;;
57730;SDS011;43570;47.476;19.040;2023-03-25T17:08:43;3.87;;;1.55;;
57730;SDS011;43570;47.476;19.040;2023-03-25T17:11:12;4.47;;;1.67;;
57730;SDS011;43570;47.476;19.040;2023-03-25T17:13:39;4.10;;;1.90;;
57730;SDS011;43570;47.476;19.040;2023-03-25T17:16:06;4.78;;;1.62;;
57730;SDS011;43570;47.476;19.040;2023-03-25T17:18:32;8.27;;;1.87;;
57730;SDS011;43570;47.476;19.040;2023-03-25T17:20:59;4.62;;;1.60;;
57730;SDS011;43570;47.476;19.040;2023-03-25T17:23:32;3.62;;;1.60;;
57730;SDS011;43570;47.476;19.040;2023-03-25T17:33:54;4.62;;;1.98;;
57730;SDS011;43570;47.476;19.040;2023-03-25T17:36:24;6.35;;;1.92;;
57730;SDS011;43570;47.476;19.040;2023-03-25T17:38:50;3.92;;;1.90;;
57730;SDS011;43570;47.476;19.040;2023-03-25T17:41:20;5.87;;;2.00;;
57730;SDS011;43570;47.476;19.040;2023-03-25T17:43:49;5.78;;;1.87;;
57730;SDS011;43570;47.476;19.040;2023-03-25T17:46:24;5.28;;;2.25;;
57730;SDS011;43570;47.476;19.040;2023-03-25T17:48:52;4.55;;;2.28;;
57730;SDS011;43570;47.476;19.040;2023-03-25T17:51:21;4.20;;;2.20;;
57730;SDS011;43570;47.476;19.040;2023-03-25T17:53:47;4.95;;;2.50;;
57730;SDS011;43570;47.476;19.040;2023-03-25T17:56:13;5.03;;;2.28;;
57730;SDS011;43570;47.476;19.040;2023-03-25T17:58:41;5.25;;;1.90;;
57730;SDS011;43570;47.476;19.040;2023-03-25T18:01:10;6.55;;;2.40;;
57730;SDS011;43570;47.476;19.040;2023-03-25T18:03:36;7.10;;;2.37;;
57730;SDS011;43570;47.476;19.040;2023-03-25T18:06:02;6.37;;;2.22;;
57730;SDS011;43570;47.476;19.040;2023-03-25T18:08:29;7.25;;;2.50;;